Foster, Wisconsin
Current Conditions -  °F | °C
As of 8:56 AM on Sunday 21 Dec 2014 (Local Time) from KEAU Reporting Station
Haze Haze  
Wind Chill: 23°   Ceiling: 600
Heat Index: 32°   Visibility: 3mi
Dew Point: 29°   Wind: 12mph
Humidity: 88%   Direction: 150°SSE
Pressure: 29.96"   Gusts: NA
Location:  44.5464°N, 91.2123°W
Report Text: KEAU 211456Z 15010KT 3SM BR OVC006 00/M02 A2996 RMK AO2 SLP156 T00001017 56014
Loading
Personal Weather Stations






























Interactive Weather Map New forecast layout! Learn more

10-Day Weather Forecast

Advertisements
Track Severe Weather on mobile